Time;durP1;ratioP1;P1;durP2;ratioP2;P2;SDS_P1;SDS_P2;PMS_P1;PMS_P2;Temp;Humidity;BMP_temperature;BMP_pressure;BME280_temperature;BME280_humidity;BME280_pressure;Samples;Min_cycle;Max_cycle;Signal;HPM_P1;HPM_P2
2023/12/05 00:00:36;;;;;;;16.57;14.93;;;;;;;2.22;94.88;93075.66;5067267;28;20254;-76
2023/12/05 00:03:02;;;;;;;16.10;14.50;;;;;;;2.43;94.24;93118.97;5061058;28;20186;-76
2023/12/05 00:05:27;;;;;;;17.20;15.60;;;;;;;2.40;94.16;93092.84;5060937;28;20229;-75
2023/12/05 00:07:52;;;;;;;16.43;15.03;;;;;;;2.45;94.24;93111.84;5067395;28;20189;-76
2023/12/05 00:10:18;;;;;;;16.27;14.67;;;;;;;2.33;94.38;93116.16;5065230;28;20251;-75
2023/12/05 00:12:43;;;;;;;17.20;15.47;;;;;;;2.26;93.87;93076.78;5067567;28;20177;-76
2023/12/05 00:15:09;;;;;;;16.47;14.90;;;;;;;2.27;94.90;93111.88;5069892;28;20218;-77
2023/12/05 00:17:34;;;;;;;15.57;13.97;;;;;;;2.43;94.41;93123.38;5059113;28;20224;-77
2023/12/05 00:20:00;;;;;;;16.20;14.80;;;;;;;2.56;94.15;93120.63;5068982;28;20230;-76
2023/12/05 00:22:28;;;;;;;15.77;14.30;;;;;;;2.47;93.73;93109.03;5071072;28;20275;-76
2023/12/05 00:24:53;;;;;;;16.17;14.50;;;;;;;2.35;94.37;93111.53;5063416;28;20225;-77
2023/12/05 00:27:18;;;;;;;16.03;14.43;;;;;;;2.51;93.73;93115.31;5066523;28;21035;-77
2023/12/05 00:29:45;;;;;;;16.37;14.77;;;;;;;2.77;92.38;93117.56;5065229;28;20225;-76
2023/12/05 00:32:11;;;;;;;15.00;13.60;;;;;;;2.64;93.52;93128.84;5069690;28;20205;-76
2023/12/05 00:34:36;;;;;;;15.17;13.77;;;;;;;2.62;94.11;93119.75;5070098;28;20467;-77
2023/12/05 00:37:02;;;;;;;15.10;13.83;;;;;;;2.71;93.45;93133.88;5062427;28;20214;-76
2023/12/05 00:39:27;;;;;;;16.40;15.03;;;;;;;2.72;92.88;93140.63;5068328;28;20228;-76
2023/12/05 00:41:53;;;;;;;16.50;15.10;;;;;;;2.19;92.98;93142.25;5063122;28;20189;-76
2023/12/05 00:44:18;;;;;;;16.87;15.47;;;;;;;2.34;92.26;93094.53;5064533;28;20241;-75
2023/12/05 00:46:43;;;;;;;15.17;13.67;;;;;;;2.65;91.48;93137.34;5073971;28;20275;-79
2023/12/05 00:49:09;;;;;;;14.73;13.57;;;;;;;2.69;91.63;93123.81;5067903;28;20225;-77
2023/12/05 00:51:34;;;;;;;16.23;14.63;;;;;;;2.62;92.53;93130.03;5100334;28;20185;-77
2023/12/05 00:53:59;;;;;;;16.67;14.97;;;;;;;2.73;91.77;93129.31;5062238;28;20220;-77
2023/12/05 00:56:25;;;;;;;15.40;14.17;;;;;;;2.67;93.20;93109.56;5066841;28;20239;-75
2023/12/05 00:58:51;;;;;;;16.03;14.70;;;;;;;2.86;93.19;93106.72;5069639;28;20279;-79
2023/12/05 01:01:18;;;;;;;17.53;14.77;;;;;;;2.93;93.17;93106.63;5062927;28;20182;-78
2023/12/05 01:03:43;;;;;;;16.17;14.47;;;;;;;2.98;93.61;93123.03;5065616;28;20244;-76
2023/12/05 01:06:09;;;;;;;16.20;14.70;;;;;;;3.05;93.70;93117.78;5068165;28;20177;-77
2023/12/05 01:08:34;;;;;;;16.27;14.77;;;;;;;2.91;94.67;93116.41;5069589;28;20314;-78
2023/12/05 01:11:00;;;;;;;15.20;14.00;;;;;;;2.89;95.40;93110.66;5082234;28;20208;-77
2023/12/05 01:13:26;;;;;;;15.63;14.33;;;;;;;3.05;95.07;93108.22;5061394;28;20180;-78
2023/12/05 01:15:51;;;;;;;14.40;13.20;;;;;;;2.93;94.73;93101.47;5062673;28;20225;-77
2023/12/05 01:18:17;;;;;;;15.47;14.27;;;;;;;3.06;94.74;93114.19;5072623;28;20212;-76
2023/12/05 01:20:42;;;;;;;14.07;12.83;;;;;;;2.88;94.88;93091.81;5061984;28;20162;-76
2023/12/05 01:23:08;;;;;;;14.77;13.57;;;;;;;2.83;95.15;93086.53;5083022;28;20238;-77
2023/12/05 01:25:33;;;;;;;14.27;13.17;;;;;;;2.79;96.18;93094.91;5064246;28;20477;-76
2023/12/05 01:27:59;;;;;;;14.43;13.23;;;;;;;2.82;96.37;93090.13;5094915;28;20256;-77
2023/12/05 01:30:24;;;;;;;16.23;14.73;;;;;;;2.87;94.83;93079.94;5074467;28;20228;-77
2023/12/05 01:32:49;;;;;;;14.90;13.53;;;;;;;2.90;94.45;93068.41;5070088;28;20215;-77
2023/12/05 01:35:16;;;;;;;16.20;14.90;;;;;;;2.90;94.30;93070.97;5066200;28;20220;-77
2023/12/05 01:37:42;;;;;;;15.50;14.30;;;;;;;2.92;94.68;93069.75;5055691;28;20221;-77
2023/12/05 01:40:09;;;;;;;16.90;15.20;;;;;;;2.87;94.64;93074.00;5092872;28;20209;-76
2023/12/05 01:42:38;;;;;;;16.80;15.20;;;;;;;2.94;94.62;93074.69;5067847;28;20170;-77
2023/12/05 01:45:08;;;;;;;17.47;15.20;;;;;;;2.84;94.98;93074.44;5060039;28;20220;-78
2023/12/05 01:47:34;;;;;;;14.93;13.57;;;;;;;2.81;94.89;93060.22;5092966;28;20185;-77
2023/12/05 01:50:00;;;;;;;16.20;14.53;;;;;;;2.86;94.87;93046.66;5058009;28;20228;-77
2023/12/05 01:52:26;;;;;;;16.40;14.87;;;;;;;2.90;94.21;93051.16;5058964;28;20202;-77
2023/12/05 01:54:52;;;;;;;17.50;15.63;;;;;;;2.98;93.78;93061.13;5065394;28;20221;-77
2023/12/05 01:57:19;;;;;;;17.40;15.77;;;;;;;3.05;92.53;93041.19;5063694;28;20211;-77
2023/12/05 01:59:44;;;;;;;15.27;13.97;;;;;;;2.78;93.27;93039.22;5054890;28;20226;-77
2023/12/05 02:02:10;;;;;;;15.90;14.37;;;;;;;2.89;93.68;93056.53;5081679;28;20186;-77
2023/12/05 02:04:38;;;;;;;15.70;14.27;;;;;;;2.91;93.33;93049.34;5074384;28;20300;-76
2023/12/05 02:07:04;;;;;;;15.80;14.33;;;;;;;2.94;94.04;93048.91;5066922;28;20200;-77
2023/12/05 02:09:31;;;;;;;16.60;14.93;;;;;;;3.02;92.82;93049.38;5061453;28;20270;-75
2023/12/05 02:11:56;;;;;;;16.27;14.70;;;;;;;2.84;93.97;93038.34;5071063;28;20181;-75
2023/12/05 02:14:22;;;;;;;16.20;14.80;;;;;;;2.95;93.23;93051.28;5067085;28;20240;-75
2023/12/05 02:16:54;;;;;;;17.20;15.40;;;;;;;3.03;92.73;93060.47;5056153;28;20209;-75
2023/12/05 02:19:38;;;;;;;18.43;14.27;;;;;;;3.04;93.07;93051.72;5074087;28;20213;-77
2023/12/05 02:22:08;;;;;;;16.30;14.80;;;;;;;2.81;94.05;93038.78;5068609;28;20606;-76
2023/12/05 02:24:52;;;;;;;17.83;16.00;;;;;;;2.70;94.11;93001.69;5065615;28;20259;-76
2023/12/05 02:27:38;;;;;;;16.77;15.20;;;;;;;2.97;93.91;93044.06;5091142;28;20173;-76
2023/12/05 02:30:04;;;;;;;16.03;14.63;;;;;;;3.06;93.65;93044.56;5059740;28;20221;-76
2023/12/05 02:32:30;;;;;;;17.13;15.33;;;;;;;2.75;95.03;93024.22;5068464;28;20189;-77
2023/12/05 02:34:55;;;;;;;15.33;14.17;;;;;;;2.81;93.53;93033.63;5100246;28;20221;-76
2023/12/05 02:37:39;;;;;;;17.57;15.83;;;;;;;2.89;93.73;93039.28;5058306;28;20245;-76
2023/12/05 02:40:21;;;;;;;16.87;15.50;;;;;;;2.81;94.32;93028.47;5058923;28;20225;-76
2023/12/05 02:42:49;;;;;;;16.33;14.50;;;;;;;2.96;93.70;93024.47;5057899;28;20277;-76
2023/12/05 02:45:23;;;;;;;18.40;14.93;;;;;;;2.76;94.01;93012.88;5072291;28;20219;-76
2023/12/05 02:47:49;;;;;;;16.83;15.30;;;;;;;2.61;94.31;92986.75;5069839;28;20211;-76
2023/12/05 02:50:17;;;;;;;17.53;15.53;;;;;;;2.72;94.86;93006.59;5063208;28;20225;-78
2023/12/05 02:52:42;;;;;;;18.93;17.10;;;;;;;2.77;94.53;92980.97;5065158;28;20181;-75
2023/12/05 02:55:08;;;;;;;15.90;14.40;;;;;;;2.71;94.60;92998.06;5077951;28;20216;-76
2023/12/05 02:57:33;;;;;;;16.43;15.07;;;;;;;2.81;93.69;92985.44;5063139;28;20186;-76
2023/12/05 02:59:58;;;;;;;20.23;15.93;;;;;;;2.79;93.95;92981.50;5063326;28;20253;-76
2023/12/05 03:02:24;;;;;;;17.37;14.47;;;;;;;2.96;93.54;92979.84;5063598;28;20185;-75
2023/12/05 03:04:49;;;;;;;16.57;15.23;;;;;;;2.64;94.62;92970.84;5066781;28;20249;-76
2023/12/05 03:07:14;;;;;;;16.10;14.70;;;;;;;2.80;93.88;92973.53;5063108;28;20188;-76
2023/12/05 03:09:40;;;;;;;15.70;14.40;;;;;;;2.44;94.66;92970.34;5058185;28;20236;-75
2023/12/05 03:12:05;;;;;;;16.73;14.43;;;;;;;2.39;95.25;92967.66;5058295;28;20197;-76
2023/12/05 03:14:31;;;;;;;16.10;14.60;;;;;;;2.33;94.73;92948.72;5087581;28;20281;-82
2023/12/05 03:16:56;;;;;;;16.70;15.10;;;;;;;2.41;95.18;92988.81;5072099;28;20231;-81
2023/12/05 03:19:21;;;;;;;14.93;13.57;;;;;;;2.44;95.02;92978.09;5064795;28;20754;-80
2023/12/05 03:21:47;;;;;;;16.63;15.13;;;;;;;2.31;95.09;92975.69;5068133;28;20192;-84
2023/12/05 03:24:12;;;;;;;16.00;14.60;;;;;;;2.15;97.24;92979.66;5059533;28;20229;-84
2023/12/05 03:26:37;;;;;;;18.13;16.23;;;;;;;2.38;96.84;92966.09;5058413;28;20218;-83
2023/12/05 03:29:03;;;;;;;17.20;15.60;;;;;;;2.23;96.13;92953.59;5061477;28;20257;-84
2023/12/05 03:31:34;;;;;;;20.07;16.07;;;;;;;2.31;96.44;92966.16;5063741;28;20185;-83
2023/12/05 03:34:00;;;;;;;18.23;16.33;;;;;;;2.37;97.30;92972.22;5057982;28;20686;-83
2023/12/05 03:36:25;;;;;;;17.07;15.47;;;;;;;2.34;96.60;92954.63;5067285;28;20232;-84
2023/12/05 03:38:50;;;;;;;18.90;15.77;;;;;;;2.61;96.04;92991.91;5103661;28;20749;-83
2023/12/05 03:41:16;;;;;;;17.43;15.67;;;;;;;2.58;96.76;92980.25;5057205;28;20186;-83
2023/12/05 03:43:41;;;;;;;16.10;14.73;;;;;;;2.45;96.02;92993.31;5058110;28;20230;-83
2023/12/05 03:46:07;;;;;;;18.13;16.47;;;;;;;2.10;97.96;92978.75;5061205;28;20190;-83
2023/12/05 03:48:32;;;;;;;17.33;15.57;;;;;;;2.14;97.02;92975.53;5061286;28;20229;-82
2023/12/05 03:50:57;;;;;;;19.10;15.73;;;;;;;1.89;99.28;92992.88;5067904;28;20194;-82
2023/12/05 03:53:23;;;;;;;20.20;18.17;;;;;;;1.89;99.36;92968.91;5056374;28;20177;-84
2023/12/05 03:55:48;;;;;;;19.47;17.77;;;;;;;2.14;98.67;92979.88;5108032;28;20209;-83
2023/12/05 03:58:13;;;;;;;17.33;15.73;;;;;;;2.48;97.24;92986.94;5061831;28;20211;-81
2023/12/05 04:00:39;;;;;;;18.77;17.03;;;;;;;2.53;97.32;92985.28;5074587;28;20246;-81
2023/12/05 04:03:04;;;;;;;20.07;18.10;;;;;;;2.52;96.71;92973.38;5101476;28;20267;-83
2023/12/05 04:05:30;;;;;;;18.47;16.67;;;;;;;2.77;95.99;93001.59;5063025;28;20296;-83
2023/12/05 04:07:55;;;;;;;18.27;16.63;;;;;;;2.94;94.98;92987.03;5064837;28;20213;-83
2023/12/05 04:10:21;;;;;;;17.80;16.20;;;;;;;2.72;94.81;92973.91;5063344;28;20280;-83
2023/12/05 04:12:46;;;;;;;21.43;19.40;;;;;;;1.99;99.53;92971.75;5066473;28;20201;-83
2023/12/05 04:15:11;;;;;;;20.10;17.97;;;;;;;2.32;100.00;92985.00;5068289;28;20221;-83
2023/12/05 04:17:37;;;;;;;19.93;17.87;;;;;;;2.26;98.56;92973.75;5061961;28;20179;-83
2023/12/05 04:20:04;;;;;;;21.40;19.17;;;;;;;2.50;97.32;92977.19;5069537;28;20224;-83
2023/12/05 04:22:29;;;;;;;20.23;18.07;;;;;;;2.42;97.63;92977.50;5073668;28;20216;-84
2023/12/05 04:24:55;;;;;;;20.17;17.97;;;;;;;2.51;95.99;92981.34;5065872;28;20221;-83
2023/12/05 04:27:20;;;;;;;21.90;17.67;;;;;;;2.35;96.23;92984.56;5062700;28;20205;-85
2023/12/05 04:29:45;;;;;;;22.20;19.80;;;;;;;1.83;99.04;92967.22;5074796;28;20220;-83
2023/12/05 04:32:11;;;;;;;21.93;18.17;;;;;;;2.15;99.80;92987.38;5067612;28;20181;-85
2023/12/05 04:34:41;;;;;;;19.60;17.60;;;;;;;2.30;98.86;92981.84;5097897;28;20213;-83
2023/12/05 04:37:07;;;;;;;18.97;17.03;;;;;;;1.77;100.00;92980.94;5073971;28;20205;-81
2023/12/05 04:39:32;;;;;;;21.40;18.40;;;;;;;2.12;99.66;92953.56;5068728;28;20307;-83
2023/12/05 04:41:57;;;;;;;21.13;18.03;;;;;;;2.47;97.24;92944.94;5065210;28;20170;-84
2023/12/05 04:44:23;;;;;;;21.27;17.90;;;;;;;2.58;97.71;92971.72;5063859;28;20226;-77
2023/12/05 04:46:48;;;;;;;21.50;17.33;;;;;;;2.47;97.99;92969.91;5053537;28;20190;-76
2023/12/05 04:49:13;;;;;;;19.43;17.40;;;;;;;1.89;100.00;92984.34;5060135;28;20222;-73
2023/12/05 04:51:39;;;;;;;19.87;17.97;;;;;;;2.16;100.00;92972.72;5062181;28;20195;-74
2023/12/05 04:54:04;;;;;;;19.97;17.93;;;;;;;2.57;98.31;92977.91;5065485;28;20221;-74
2023/12/05 04:56:30;;;;;;;22.53;18.23;;;;;;;2.50;98.59;92979.78;5061179;28;20237;-74
2023/12/05 04:58:55;;;;;;;20.20;17.07;;;;;;;2.59;98.31;92996.47;5059553;28;20247;-75
2023/12/05 05:01:20;;;;;;;20.53;18.43;;;;;;;2.65;97.42;92996.38;5055200;28;20174;-73
2023/12/05 05:03:46;;;;;;;20.27;17.83;;;;;;;2.62;96.96;92978.00;5059684;28;20217;-73
2023/12/05 05:06:11;;;;;;;21.47;19.13;;;;;;;2.49;97.64;92984.13;5063294;28;20255;-77
2023/12/05 05:08:37;;;;;;;21.03;18.53;;;;;;;2.16;98.71;92990.75;5066285;28;20237;-77
2023/12/05 05:11:02;;;;;;;22.30;18.83;;;;;;;2.38;99.05;92989.28;5083436;28;20205;-78
2023/12/05 05:13:28;;;;;;;20.63;18.17;;;;;;;2.07;98.21;92922.53;5070037;28;20178;-77
2023/12/05 05:15:53;;;;;;;22.57;19.30;;;;;;;2.49;98.29;92993.66;5093217;28;20206;-78
2023/12/05 05:18:18;;;;;;;21.53;19.10;;;;;;;2.40;99.54;92992.38;5067461;28;20205;-80
2023/12/05 05:20:44;;;;;;;20.27;18.13;;;;;;;2.13;100.00;93004.06;5058264;28;20170;-80
2023/12/05 05:23:09;;;;;;;21.37;19.20;;;;;;;2.18;100.00;93002.41;5051166;28;20186;-77
2023/12/05 05:25:35;;;;;;;21.77;19.47;;;;;;;2.19;100.00;93005.75;5065654;28;20248;-77
2023/12/05 05:28:01;;;;;;;30.30;21.03;;;;;;;2.27;100.00;93000.31;5065806;28;20201;-79
2023/12/05 05:30:27;;;;;;;25.07;22.23;;;;;;;1.73;100.00;92982.38;5056764;28;20221;-78
2023/12/05 05:32:52;;;;;;;28.37;21.27;;;;;;;1.98;100.00;92991.56;5055746;28;20265;-74
2023/12/05 05:35:17;;;;;;;27.27;21.57;;;;;;;2.11;100.00;92991.41;5066828;28;20233;-78
2023/12/05 05:37:43;;;;;;;26.07;21.23;;;;;;;2.23;100.00;92983.72;5061322;28;20217;-79
2023/12/05 05:40:09;;;;;;;23.27;19.93;;;;;;;2.56;99.98;93004.66;5053704;28;20245;-77
2023/12/05 05:42:34;;;;;;;23.83;20.40;;;;;;;2.60;99.41;93003.22;5064307;28;20187;-77
2023/12/05 05:44:59;;;;;;;23.03;20.70;;;;;;;2.38;100.00;93009.88;5076803;28;20245;-77
2023/12/05 05:47:25;;;;;;;26.57;20.47;;;;;;;2.83;99.10;92992.97;5071457;28;20220;-77
2023/12/05 05:49:50;;;;;;;22.17;18.80;;;;;;;2.76;98.29;93000.00;5060307;28;20281;-76
2023/12/05 05:52:15;;;;;;;24.30;20.60;;;;;;;2.62;98.99;92978.00;5067392;28;20192;-77
2023/12/05 05:54:41;;;;;;;23.80;19.80;;;;;;;2.76;98.30;92958.75;5053936;28;20934;-76
2023/12/05 05:57:07;;;;;;;24.87;19.47;;;;;;;2.69;98.36;92989.00;5063726;28;20266;-77
2023/12/05 05:59:32;;;;;;;18.90;16.80;;;;;;;2.68;97.63;92961.66;5061684;28;20249;-77
2023/12/05 06:01:57;;;;;;;20.27;17.90;;;;;;;2.50;97.64;92948.84;5058714;28;20189;-81
2023/12/05 06:04:23;;;;;;;17.83;15.87;;;;;;;2.55;96.37;92977.31;5068231;28;20289;-76
2023/12/05 06:06:48;;;;;;;17.53;15.73;;;;;;;2.50;96.67;92979.78;5063384;28;20177;-76
2023/12/05 06:09:14;;;;;;;17.97;15.97;;;;;;;2.49;96.74;92975.63;5074355;28;20212;-75
2023/12/05 06:11:39;;;;;;;16.10;14.57;;;;;;;2.30;95.77;92974.91;5080644;28;20200;-76
2023/12/05 06:14:04;;;;;;;15.40;14.00;;;;;;;2.33;96.03;92963.38;5058194;28;20230;-75
2023/12/05 06:16:30;;;;;;;16.93;15.37;;;;;;;2.35;95.37;92949.25;5055288;28;20273;-76
2023/12/05 06:18:55;;;;;;;15.60;14.00;;;;;;;2.06;95.68;92960.38;5065107;28;20217;-76
2023/12/05 06:21:20;;;;;;;16.40;13.83;;;;;;;2.36;94.77;92932.03;5064148;28;20245;-76
2023/12/05 06:23:46;;;;;;;15.80;14.27;;;;;;;2.50;93.93;92951.44;5054923;28;20210;-76
2023/12/05 06:26:11;;;;;;;16.83;15.17;;;;;;;2.53;93.79;92956.13;5060811;28;20189;-76
2023/12/05 06:28:37;;;;;;;15.23;13.57;;;;;;;2.43;93.96;92922.41;5056718;28;20257;-75
2023/12/05 06:31:02;;;;;;;14.37;12.17;;;;;;;2.70;92.82;92944.19;5059938;28;20189;-76
2023/12/05 06:33:28;;;;;;;16.73;13.77;;;;;;;2.57;93.32;92955.47;5056515;28;20213;-75
2023/12/05 06:35:53;;;;;;;14.70;13.17;;;;;;;2.85;93.72;92947.09;5063200;28;20210;-80
2023/12/05 06:38:19;;;;;;;15.40;14.00;;;;;;;3.03;91.03;92947.00;5063399;28;20181;-75
2023/12/05 06:40:44;;;;;;;19.57;15.63;;;;;;;2.77;91.88;92947.44;5061192;28;20194;-78
2023/12/05 06:43:09;;;;;;;20.33;16.83;;;;;;;2.93;91.56;92957.06;5057332;28;20209;-77
2023/12/05 06:45:35;;;;;;;20.17;17.80;;;;;;;2.83;92.82;92962.78;5065261;28;21177;-81
2023/12/05 06:48:01;;;;;;;25.10;18.23;;;;;;;2.59;94.36;92962.97;5062961;28;20932;-77
2023/12/05 06:50:26;;;;;;;19.03;16.77;;;;;;;2.60;93.69;92943.97;5059093;28;20217;-76
2023/12/05 06:52:52;;;;;;;24.93;18.77;;;;;;;2.78;93.80;92951.59;5062478;28;20188;-76
2023/12/05 06:55:17;;;;;;;19.40;17.53;;;;;;;2.83;93.29;92941.41;5067601;28;20221;-77
2023/12/05 06:57:43;;;;;;;20.40;17.63;;;;;;;2.80;93.71;92940.03;5059017;28;20232;-74
2023/12/05 07:00:09;;;;;;;28.37;18.17;;;;;;;2.63;94.99;92966.69;5053324;28;20288;-76
2023/12/05 07:02:34;;;;;;;22.10;17.53;;;;;;;2.28;94.92;92929.75;5054508;28;20208;-76
2023/12/05 07:05:04;;;;;;;20.63;18.47;;;;;;;2.98;94.36;92959.78;5070028;28;20228;-77
2023/12/05 07:07:29;;;;;;;25.07;17.00;;;;;;;3.23;92.98;92960.34;5055544;28;20220;-75
2023/12/05 07:09:55;;;;;;;22.13;18.57;;;;;;;3.38;92.04;92931.50;5056189;28;20229;-76
2023/12/05 07:12:20;;;;;;;22.63;17.70;;;;;;;3.45;91.64;92927.78;5067471;28;20299;-76
2023/12/05 07:14:46;;;;;;;21.80;17.83;;;;;;;3.64;90.80;92926.63;5067493;28;20252;-76
2023/12/05 07:17:11;;;;;;;20.00;17.90;;;;;;;3.75;90.70;92927.59;5062547;28;20262;-76
2023/12/05 07:19:36;;;;;;;20.70;18.40;;;;;;;3.91;89.71;92925.06;5058938;28;20210;-77
2023/12/05 07:22:02;;;;;;;22.53;20.17;;;;;;;3.89;88.62;92919.34;5061660;28;20247;-76
2023/12/05 07:24:27;;;;;;;25.30;19.33;;;;;;;3.99;88.18;92914.38;5069269;28;20229;-76
2023/12/05 07:26:54;;;;;;;25.17;19.00;;;;;;;3.80;87.94;92917.38;5074769;28;20186;-78
2023/12/05 07:29:19;;;;;;;20.00;17.30;;;;;;;3.63;88.79;92913.97;5066930;28;20251;-77
2023/12/05 07:31:45;;;;;;;20.30;18.33;;;;;;;3.45;90.20;92903.78;5064609;28;20189;-76
2023/12/05 07:34:10;;;;;;;22.27;18.53;;;;;;;3.66;89.30;92895.44;5060349;28;20301;-76
2023/12/05 07:36:40;;;;;;;23.67;19.20;;;;;;;3.40;91.00;92919.94;5060589;28;20228;-76
2023/12/05 07:39:06;;;;;;;22.20;19.60;;;;;;;3.57;90.25;92915.63;5060614;28;20217;-77
2023/12/05 07:41:32;;;;;;;23.70;21.17;;;;;;;3.22;90.89;92892.47;5062222;28;20181;-76
2023/12/05 07:43:57;;;;;;;21.93;19.70;;;;;;;2.95;95.53;92906.88;5060318;28;20222;-76
2023/12/05 07:46:23;;;;;;;22.63;20.27;;;;;;;3.49;92.20;92923.72;5054005;28;20178;-76
2023/12/05 07:48:48;;;;;;;27.13;20.93;;;;;;;3.80;90.09;92912.97;5056565;28;20260;-76
2023/12/05 07:51:16;;;;;;;27.60;21.90;;;;;;;3.80;89.32;92910.41;5054802;28;20190;-76
2023/12/05 07:53:42;;;;;;;25.77;23.00;;;;;;;3.36;91.40;92915.47;5060771;28;20242;-75
2023/12/05 07:56:08;;;;;;;24.80;21.80;;;;;;;3.97;89.54;92911.22;5086047;28;20213;-75
2023/12/05 07:58:33;;;;;;;24.57;19.77;;;;;;;4.17;88.07;92914.19;5055958;28;20286;-75
2023/12/05 08:00:58;;;;;;;23.13;19.33;;;;;;;3.81;88.00;92870.69;5061156;28;20189;-76
2023/12/05 08:03:24;;;;;;;22.97;19.40;;;;;;;4.03;87.95;92925.81;5062085;28;20656;-76
2023/12/05 08:05:49;;;;;;;24.47;20.87;;;;;;;3.27;92.22;92917.59;5057083;28;20242;-76
2023/12/05 08:08:14;;;;;;;28.83;22.50;;;;;;;3.30;92.93;92917.13;5053829;28;20186;-75
2023/12/05 08:10:40;;;;;;;27.93;22.10;;;;;;;3.40;92.61;92925.09;5062516;28;20233;-76
2023/12/05 08:13:05;;;;;;;32.17;24.37;;;;;;;3.28;92.22;92934.66;5064273;28;20245;-76
2023/12/05 08:15:30;;;;;;;31.37;23.00;;;;;;;3.31;93.02;92965.16;5088770;28;20239;-76
2023/12/05 08:17:56;;;;;;;39.60;27.43;;;;;;;2.83;95.15;92954.28;5062852;28;20231;-76
2023/12/05 08:20:21;;;;;;;30.63;24.17;;;;;;;2.82;95.28;92947.53;5068550;28;20220;-76
2023/12/05 08:22:46;;;;;;;31.93;25.40;;;;;;;2.91;93.65;92959.13;5073834;28;20211;-74
2023/12/05 08:25:12;;;;;;;31.67;23.83;;;;;;;2.63;93.93;92920.31;5063605;28;20304;-75
2023/12/05 08:27:37;;;;;;;29.20;23.80;;;;;;;3.06;92.28;92936.25;5077388;28;20196;-75
2023/12/05 08:30:03;;;;;;;28.43;21.83;;;;;;;3.15;92.14;92945.19;5064137;28;20209;-76
2023/12/05 08:32:28;;;;;;;30.37;23.57;;;;;;;3.60;90.27;92930.66;5053320;28;20174;-76
2023/12/05 08:34:54;;;;;;;26.77;21.90;;;;;;;3.38;91.47;92939.25;5055101;28;20247;-77
2023/12/05 08:37:19;;;;;;;26.90;21.83;;;;;;;3.22;91.58;92938.91;5080549;28;20222;-77
2023/12/05 08:39:45;;;;;;;28.47;23.03;;;;;;;3.19;90.99;92944.53;5062698;28;20221;-76
2023/12/05 08:42:10;;;;;;;27.80;22.40;;;;;;;3.13;90.24;92947.22;5058884;28;20182;-76
2023/12/05 08:44:35;;;;;;;27.67;23.97;;;;;;;3.58;90.12;92948.16;5061375;28;20285;-75
2023/12/05 08:47:00;;;;;;;24.40;21.73;;;;;;;3.80;89.04;92925.88;5070073;28;20215;-76
2023/12/05 08:49:26;;;;;;;28.67;25.53;;;;;;;3.46;88.40;92933.72;5067762;28;20251;-75
2023/12/05 08:51:51;;;;;;;29.37;23.60;;;;;;;3.99;87.66;92950.53;5066629;28;20182;-75
2023/12/05 08:54:16;;;;;;;28.63;22.33;;;;;;;4.06;86.91;92935.66;5065614;28;20253;-76
2023/12/05 08:56:42;;;;;;;29.63;22.23;;;;;;;3.60;89.50;92940.19;5065867;28;20222;-77
2023/12/05 08:59:08;;;;;;;26.27;22.50;;;;;;;3.99;89.11;92924.72;5061905;28;20224;-76
2023/12/05 09:01:33;;;;;;;32.43;22.97;;;;;;;3.82;87.91;92912.75;5069857;28;20178;-76
2023/12/05 09:03:58;;;;;;;26.63;20.63;;;;;;;3.99;88.36;92903.25;5065479;28;20774;-76
2023/12/05 09:06:24;;;;;;;27.90;21.90;;;;;;;4.17;88.15;92901.25;5068902;28;20177;-75
2023/12/05 09:08:49;;;;;;;27.33;22.03;;;;;;;4.64;86.40;92887.03;5060393;28;20304;-75
2023/12/05 09:11:14;;;;;;;23.83;20.50;;;;;;;5.02;85.40;92894.06;5071893;28;20202;-75
2023/12/05 09:13:40;;;;;;;28.90;20.70;;;;;;;5.06;84.03;92900.31;5069485;28;20245;-75
2023/12/05 09:16:05;;;;;;;23.53;20.23;;;;;;;5.24;83.16;92897.50;5066467;28;20243;-75
2023/12/05 09:18:31;;;;;;;24.73;20.77;;;;;;;5.18;83.25;92902.84;5066921;28;20193;-75
2023/12/05 09:20:57;;;;;;;21.17;19.00;;;;;;;5.46;82.25;92884.56;5065022;28;20189;-75
2023/12/05 09:23:23;;;;;;;22.20;19.73;;;;;;;5.67;82.07;92891.53;5067030;28;20189;-74
2023/12/05 09:25:48;;;;;;;22.17;17.97;;;;;;;5.75;79.31;92876.38;5078760;28;20209;-75
2023/12/05 09:28:14;;;;;;;21.77;15.57;;;;;;;5.13;81.65;92863.94;5059338;28;20190;-75
2023/12/05 09:30:39;;;;;;;22.23;18.37;;;;;;;5.53;79.88;92879.97;5065345;28;20211;-75
2023/12/05 09:33:04;;;;;;;25.13;20.27;;;;;;;5.13;81.49;92856.19;5064811;28;20178;-74
2023/12/05 09:35:30;;;;;;;23.43;19.97;;;;;;;5.36;81.23;92861.91;5065082;28;20246;-75
2023/12/05 09:37:56;;;;;;;19.87;17.83;;;;;;;5.14;81.40;92860.34;5099444;28;20208;-75
2023/12/05 09:40:22;;;;;;;19.77;17.83;;;;;;;5.48;79.89;92861.81;5057887;28;20826;-74
2023/12/05 09:42:51;;;;;;;18.20;16.13;;;;;;;5.43;80.08;92856.56;5093258;28;20206;-74
2023/12/05 09:45:18;;;;;;;19.17;17.17;;;;;;;5.20;81.23;92859.41;5065526;28;20217;-74
2023/12/05 09:47:46;;;;;;;24.77;18.90;;;;;;;5.23;81.75;92867.44;5057200;28;20189;-74
2023/12/05 09:50:12;;;;;;;19.73;17.67;;;;;;;5.18;82.09;92856.25;5051981;28;20328;-74
2023/12/05 09:52:38;;;;;;;24.33;19.00;;;;;;;5.18;80.73;92840.72;5056817;28;20190;-74
2023/12/05 09:55:05;;;;;;;21.03;18.93;;;;;;;5.28;80.33;92836.44;5090826;28;20248;-74
2023/12/05 09:57:30;;;;;;;22.03;19.87;;;;;;;5.29;80.80;92829.47;5068623;28;20205;-75
2023/12/05 09:59:55;;;;;;;23.73;19.87;;;;;;;5.37;79.79;92829.06;5053018;28;20252;-74
2023/12/05 10:02:23;;;;;;;24.93;18.47;;;;;;;5.40;80.26;92834.53;5055391;28;20177;-74
2023/12/05 10:05:00;;;;;;;23.17;19.53;;;;;;;5.11;83.42;92832.34;5062962;28;20257;-75
2023/12/05 10:07:27;;;;;;;19.40;17.30;;;;;;;5.39;80.57;92827.00;5068196;28;20193;-75
2023/12/05 10:09:55;;;;;;;25.27;18.87;;;;;;;5.38;81.88;92809.91;5057783;28;20222;-74
2023/12/05 10:12:20;;;;;;;18.97;17.17;;;;;;;5.93;79.79;92826.06;5056135;28;20202;-74
2023/12/05 10:14:46;;;;;;;20.87;18.07;;;;;;;5.22;82.43;92818.50;5095000;28;20221;-75
2023/12/05 10:17:11;;;;;;;19.83;17.97;;;;;;;6.08;78.73;92805.47;5068202;28;20205;-74
2023/12/05 10:19:37;;;;;;;19.67;17.73;;;;;;;6.03;77.96;92776.91;5061130;28;20234;-74
2023/12/05 10:22:03;;;;;;;18.67;16.47;;;;;;;5.96;78.00;92791.91;5066217;28;20706;-74
2023/12/05 10:24:51;;;;;;;18.80;16.87;;;;;;;5.74;79.71;92799.69;5054177;28;20234;-75
2023/12/05 10:27:16;;;;;;;19.27;17.47;;;;;;;4.61;83.55;92771.19;5058956;28;20185;-74
2023/12/05 10:29:42;;;;;;;18.40;16.77;;;;;;;4.80;85.14;92788.00;5065566;28;20237;-74
2023/12/05 10:32:11;;;;;;;17.10;15.50;;;;;;;4.96;83.12;92753.53;5058792;28;20269;-74
2023/12/05 10:34:51;;;;;;;18.70;16.83;;;;;;;5.82;82.10;92770.00;5056641;28;20285;-74
2023/12/05 10:37:34;;;;;;;20.40;16.80;;;;;;;6.23;78.07;92772.69;5062951;28;20205;-74
2023/12/05 10:39:59;;;;;;;21.50;17.87;;;;;;;6.30;78.29;92762.88;5055140;28;20220;-74
2023/12/05 10:42:28;;;;;;;21.40;15.80;;;;;;;6.31;78.14;92758.47;5058331;28;20182;-74
2023/12/05 10:44:54;;;;;;;23.10;18.20;;;;;;;5.82;79.68;92749.28;5092660;28;20214;-74
2023/12/05 10:47:20;;;;;;;18.37;16.53;;;;;;;5.87;79.48;92736.34;5058872;28;20237;-74
2023/12/05 10:49:47;;;;;;;19.87;17.80;;;;;;;5.65;80.74;92733.03;5073448;28;20228;-74
2023/12/05 10:52:12;;;;;;;18.00;16.37;;;;;;;5.55;80.51;92733.72;5060183;28;20245;-74
2023/12/05 10:54:41;;;;;;;20.40;18.30;;;;;;;5.87;80.64;92716.41;5051327;28;20248;-74
2023/12/05 10:57:09;;;;;;;18.93;16.67;;;;;;;6.30;78.79;92731.00;5085318;28;20236;-74
2023/12/05 10:59:37;;;;;;;19.03;17.23;;;;;;;6.32;78.62;92713.38;5057654;28;20245;-74
2023/12/05 11:02:11;;;;;;;19.40;17.40;;;;;;;6.25;78.05;92702.44;5053346;28;20194;-74
2023/12/05 11:04:38;;;;;;;18.33;16.47;;;;;;;5.78;78.25;92686.78;5067993;28;20290;-74
2023/12/05 11:07:03;;;;;;;18.67;16.87;;;;;;;4.86;83.80;92722.38;5088817;28;20913;-74
2023/12/05 11:09:29;;;;;;;18.77;16.57;;;;;;;4.71;85.33;92680.84;5074452;28;20231;-73
2023/12/05 11:11:56;;;;;;;18.80;16.93;;;;;;;5.53;82.18;92725.41;5068745;28;20193;-74
2023/12/05 11:14:24;;;;;;;19.63;17.87;;;;;;;5.80;80.38;92713.25;5060852;28;20229;-75
2023/12/05 11:16:52;;;;;;;18.43;16.53;;;;;;;5.60;81.66;92730.41;5062200;28;20236;-74
2023/12/05 11:19:55;;;;;;;18.90;16.33;;;;;;;5.29;83.62;92710.44;5063668;28;20227;-75